Yorkana, Pennsylvania
Current Conditions -  °F | °C
As of 5:56 PM on Wednesday 22 Oct 2014 (Local Time) from KMDT Reporting Station
Overcast Overcast  
Wind Chill: 54°   Ceiling: 2800
Heat Index: 54°   Visibility: 10mi
Dew Point: 44°   Wind: 17mph
Humidity: 69%   Direction: 340°NNW
Pressure: 29.95"   Gusts: 26mph
Location:  40.0152°N, 76.5974°W
Report Text: KMDT 222156Z 34015G23KT 10SM BKN028 OVC040 12/07 A2995 RMK AO2 SLP144 T01220067
Loading
Personal Weather Stations






























Interactive Weather Map
Tropical Storm Tracking
New forecast layout! Learn more

10-Day Weather Forecast

Advertisements
Track Severe Weather on mobile